createdAt,value
2023-05-08T00:00:12.796Z,17.68
2023-05-08T00:05:11.784Z,17.58
2023-05-08T00:10:11.466Z,17.59
2023-05-08T00:15:12.818Z,17.65
2023-05-08T00:20:12.863Z,17.54
2023-05-08T00:25:11.752Z,17.57
2023-05-08T00:30:13.276Z,17.49
2023-05-08T00:35:12.785Z,17.49
2023-05-08T00:40:12.824Z,17.63
2023-05-08T00:45:13.368Z,17.64
2023-05-08T00:50:13.084Z,17.68
2023-05-08T00:55:12.117Z,17.65
2023-05-08T01:00:13.460Z,17.72
2023-05-08T01:05:13.155Z,17.65
2023-05-08T01:10:12.437Z,17.59
2023-05-08T01:15:16.988Z,17.60
2023-05-08T01:20:27.373Z,17.64
2023-05-08T01:25:54.442Z,17.42
2023-05-08T01:31:13.539Z,17.54
2023-05-08T01:36:21.879Z,17.51
2023-05-08T01:41:28.794Z,17.47
2023-05-08T01:46:29.572Z,17.50
2023-05-08T01:51:33.472Z,17.48
2023-05-08T01:56:32.961Z,17.59
2023-05-08T02:01:35.340Z,17.69
2023-05-08T02:06:37.294Z,17.70
2023-05-08T02:11:37.970Z,17.78
2023-05-08T02:16:38.854Z,17.38
2023-05-08T02:21:41.803Z,17.32
2023-05-08T02:26:42.622Z,17.21
2023-05-08T02:31:42.818Z,17.44
2023-05-08T02:36:44.381Z,17.51
2023-05-08T02:41:44.451Z,17.60
2023-05-08T02:46:50.582Z,17.66
2023-05-08T02:51:57.080Z,17.72
2023-05-08T02:57:01.802Z,17.64
2023-05-08T03:02:08.083Z,17.54
2023-05-08T03:07:09.413Z,17.49
2023-05-08T03:12:14.356Z,17.42
2023-05-08T03:17:17.461Z,17.37
2023-05-08T03:22:20.434Z,17.34
2023-05-08T03:27:20.519Z,17.42
2023-05-08T03:32:21.309Z,17.38
2023-05-08T03:37:22.585Z,17.31
2023-05-08T03:42:22.394Z,17.28
2023-05-08T03:47:22.556Z,17.24
2023-05-08T03:52:23.386Z,17.31
2023-05-08T03:57:22.801Z,17.33
2023-05-08T04:02:29.965Z,17.29
2023-05-08T04:07:38.021Z,17.26
2023-05-08T04:12:46.451Z,17.39
2023-05-08T04:17:51.398Z,17.35
2023-05-08T04:22:54.944Z,17.37
2023-05-08T04:27:57.707Z,17.33
2023-05-08T04:32:58.089Z,17.37
2023-05-08T04:38:00.210Z,17.45
2023-05-08T04:42:59.396Z,17.52
2023-05-08T04:47:59.051Z,17.49
2023-05-08T04:52:59.299Z,17.54
2023-05-08T04:57:58.258Z,17.75
2023-05-08T05:02:57.293Z,17.91
2023-05-08T05:07:56.203Z,17.95
2023-05-08T05:12:56.428Z,17.95
2023-05-08T05:17:58.253Z,18.09
2023-05-08T05:22:57.805Z,18.12
2023-05-08T05:27:58.907Z,18.25
2023-05-08T05:32:58.485Z,18.37
2023-05-08T05:37:57.399Z,18.36
2023-05-08T05:42:56.350Z,18.53
2023-05-08T05:47:56.399Z,18.69
2023-05-08T05:52:57.850Z,18.90
2023-05-08T05:57:57.885Z,19.21
2023-05-08T06:02:59.077Z,19.44
2023-05-08T06:07:58.268Z,19.51
2023-05-08T06:12:57.179Z,19.65
2023-05-08T06:17:56.561Z,19.70
2023-05-08T06:22:56.730Z,19.90
2023-05-08T06:27:55.380Z,19.97
2023-05-08T06:32:54.218Z,19.96
2023-05-08T06:37:53.046Z,20.19
2023-05-08T06:42:53.109Z,20.45
2023-05-08T06:47:51.814Z,20.58
2023-05-08T06:52:50.478Z,20.78
2023-05-08T06:57:49.168Z,20.95
2023-05-08T07:02:49.297Z,20.87
2023-05-08T07:07:48.024Z,20.94
2023-05-08T07:12:46.837Z,20.88
2023-05-08T07:17:45.850Z,21.04
2023-05-08T07:22:46.554Z,21.09
2023-05-08T07:27:45.240Z,21.08
2023-05-08T07:32:44.054Z,21.09
2023-05-08T07:37:42.889Z,21.17
2023-05-08T07:42:44.369Z,21.23
2023-05-08T07:47:50.939Z,21.25
2023-05-08T07:52:50.590Z,21.28
2023-05-08T07:57:50.806Z,21.48
2023-05-08T08:02:51.449Z,21.55
2023-05-08T08:07:50.546Z,21.73
2023-05-08T08:12:50.695Z,21.80
2023-05-08T08:17:49.611Z,21.92
2023-05-08T08:22:48.542Z,22.20
2023-05-08T08:27:49.801Z,22.57
2023-05-08T08:32:50.207Z,22.63
2023-05-08T08:37:48.954Z,22.79
2023-05-08T08:42:47.773Z,22.89
2023-05-08T08:47:47.051Z,23.20
2023-05-08T08:52:56.947Z,23.19
2023-05-08T08:58:04.478Z,23.08
2023-05-08T09:03:03.616Z,23.08
2023-05-08T09:08:05.803Z,23.16
2023-05-08T09:13:05.003Z,22.97
2023-05-08T09:18:04.001Z,22.70
2023-05-08T09:23:04.295Z,22.78
2023-05-08T09:28:16.791Z,22.32
2023-05-08T09:33:15.658Z,22.08
2023-05-08T09:43:37.170Z,22.39
2023-05-08T09:48:38.951Z,22.45
2023-05-08T09:53:38.004Z,22.29
2023-05-08T09:58:41.745Z,22.78
2023-05-08T10:03:50.361Z,23.02
2023-05-08T10:08:49.711Z,22.57
2023-05-08T10:13:49.758Z,22.54
2023-05-08T10:18:50.516Z,22.57
2023-05-08T10:23:52.299Z,22.84
2023-05-08T10:28:57.536Z,22.26
2023-05-08T10:33:57.403Z,21.98
2023-05-08T10:38:58.715Z,21.50
2023-05-08T10:44:02.560Z,20.55
2023-05-08T10:49:14.134Z,20.61
2023-05-08T10:54:21.822Z,20.21
2023-05-08T10:59:23.014Z,20.01
2023-05-08T11:04:22.664Z,19.63
2023-05-08T11:09:23.244Z,19.47
2023-05-08T11:14:25.419Z,19.48
2023-05-08T11:19:26.257Z,19.08
2023-05-08T11:24:36.030Z,19.53
2023-05-08T11:29:36.319Z,19.34
2023-05-08T11:34:48.972Z,19.20
2023-05-08T11:39:47.935Z,19.03
2023-05-08T11:44:48.098Z,18.60
2023-05-08T11:49:46.892Z,18.21
2023-05-08T11:54:45.683Z,17.99
2023-05-08T11:59:44.965Z,17.81
2023-05-08T12:04:48.460Z,17.74
2023-05-08T12:09:48.061Z,17.34
2023-05-08T12:14:51.010Z,17.55
2023-05-08T12:19:56.584Z,17.43
2023-05-08T12:24:55.326Z,17.29
2023-05-08T12:29:54.175Z,16.91
2023-05-08T12:34:54.470Z,16.76
2023-05-08T12:39:53.136Z,16.40
2023-05-08T12:44:52.648Z,16.28
2023-05-08T12:49:52.778Z,16.18
2023-05-08T12:54:52.912Z,16.04
2023-05-08T12:59:51.778Z,15.86
2023-05-08T13:04:56.069Z,15.85
2023-05-08T13:10:00.260Z,15.59
2023-05-08T13:14:59.185Z,15.60
2023-05-08T13:19:57.931Z,15.58
2023-05-08T13:24:56.686Z,15.32
2023-05-08T13:29:56.830Z,15.25
2023-05-08T13:34:58.799Z,15.33
2023-05-08T13:39:59.620Z,15.30
2023-05-08T13:44:59.858Z,14.96
2023-05-08T13:49:58.666Z,14.89
2023-05-08T13:54:58.137Z,14.89
2023-05-08T13:59:56.943Z,14.98
2023-05-08T14:04:57.696Z,14.91
2023-05-08T14:09:56.547Z,15.05
2023-05-08T14:14:55.271Z,14.98
2023-05-08T14:19:59.866Z,14.78
2023-05-08T14:24:58.650Z,14.80
2023-05-08T14:29:57.970Z,14.93
2023-05-08T14:34:58.297Z,15.09
2023-05-08T14:39:58.721Z,15.11
2023-05-08T14:44:57.545Z,14.98
2023-05-08T14:49:56.368Z,15.00
2023-05-08T14:54:56.682Z,15.07
2023-05-08T14:59:56.918Z,15.09
2023-05-08T15:04:55.799Z,15.10
2023-05-08T15:09:54.517Z,15.17
2023-05-08T15:14:54.753Z,15.09
2023-05-08T15:19:53.558Z,15.35
2023-05-08T15:24:52.415Z,15.29
2023-05-08T15:29:51.819Z,15.27
2023-05-08T15:34:52.000Z,15.16
2023-05-08T15:39:50.945Z,15.09
2023-05-08T15:44:54.632Z,15.03
2023-05-08T15:49:55.515Z,14.94
2023-05-08T15:54:54.262Z,14.95
2023-05-08T15:59:52.970Z,14.95
2023-05-08T16:04:51.803Z,14.85
2023-05-08T16:09:52.007Z,14.93
2023-05-08T16:14:50.716Z,15.18
2023-05-08T16:19:49.486Z,15.23
2023-05-08T16:24:48.165Z,15.33
2023-05-08T16:29:48.421Z,15.46
2023-05-08T16:34:47.092Z,15.37
2023-05-08T16:39:45.823Z,15.44
2023-05-08T16:44:44.464Z,15.40
2023-05-08T16:49:45.085Z,15.54
2023-05-08T16:54:43.995Z,15.45
2023-05-08T16:59:42.673Z,15.36
2023-05-08T17:04:41.836Z,15.37
2023-05-08T17:09:42.328Z,15.38
2023-05-08T17:14:42.720Z,15.36
2023-05-08T17:19:43.170Z,15.30
2023-05-08T17:24:43.461Z,15.35
2023-05-08T17:29:42.198Z,15.27
2023-05-08T17:34:41.057Z,15.30
2023-05-08T17:39:39.858Z,15.41
2023-05-08T17:44:40.027Z,15.33
2023-05-08T17:49:38.975Z,15.28
2023-05-08T17:54:37.806Z,15.29
2023-05-08T17:59:36.540Z,15.38
2023-05-08T18:04:36.646Z,15.06
2023-05-08T18:09:35.461Z,14.91
2023-05-08T18:14:34.851Z,14.96
2023-05-08T18:19:34.120Z,15.00
2023-05-08T18:24:34.200Z,15.02
2023-05-08T18:29:32.967Z,14.74
2023-05-08T18:34:33.001Z,14.83
2023-05-08T18:39:33.127Z,14.88
2023-05-08T18:44:31.993Z,14.96
2023-05-08T18:49:30.837Z,14.90
2023-05-08T18:54:30.078Z,14.74
2023-05-08T18:59:30.276Z,14.86
2023-05-08T19:04:29.051Z,14.93
2023-05-08T19:09:27.840Z,15.03
2023-05-08T19:14:26.622Z,15.00
2023-05-08T19:19:27.684Z,15.00
2023-05-08T19:24:29.885Z,14.94
2023-05-08T19:29:28.770Z,14.99
2023-05-08T19:34:29.136Z,15.03
2023-05-08T19:39:28.230Z,15.05
2023-05-08T19:44:28.160Z,15.08
2023-05-08T19:49:28.815Z,15.07
2023-05-08T19:54:27.596Z,14.98
2023-05-08T19:59:26.503Z,14.95
2023-05-08T20:04:25.427Z,14.92
2023-05-08T20:09:25.670Z,14.73
2023-05-08T20:14:24.518Z,14.40
2023-05-08T20:19:23.360Z,14.35
2023-05-08T20:24:23.392Z,14.22
2023-05-08T20:29:24.331Z,14.17
2023-05-08T20:34:23.121Z,14.14
2023-05-08T20:39:21.922Z,13.86
2023-05-08T20:44:20.610Z,13.94
2023-05-08T20:49:20.764Z,13.65
2023-05-08T20:54:19.443Z,13.55
2023-05-08T20:59:18.870Z,13.60
2023-05-08T21:04:20.474Z,13.45
2023-05-08T21:09:19.641Z,13.30
2023-05-08T21:14:18.405Z,13.38
2023-05-08T21:19:17.766Z,13.29
2023-05-08T21:24:17.919Z,13.43
2023-05-08T21:29:16.767Z,13.19
2023-05-08T21:34:16.512Z,13.23
2023-05-08T21:39:15.235Z,13.11
2023-05-08T21:44:16.084Z,12.91
2023-05-08T21:49:15.494Z,12.95
2023-05-08T21:54:14.338Z,12.94
2023-05-08T21:59:13.095Z,12.93
2023-05-08T22:04:13.154Z,12.83
2023-05-08T22:09:11.838Z,12.77
2023-05-08T22:14:10.560Z,12.75
2023-05-08T22:19:11.475Z,12.78
2023-05-08T22:24:11.589Z,12.61
2023-05-08T22:29:10.284Z,12.46
2023-05-08T22:34:09.231Z,12.49
2023-05-08T22:39:10.153Z,12.42
2023-05-08T22:44:10.529Z,12.57
2023-05-08T22:49:10.349Z,12.32
2023-05-08T22:54:09.039Z,12.34
2023-05-08T22:59:07.970Z,12.19
2023-05-08T23:04:08.166Z,12.13
2023-05-08T23:09:06.936Z,12.09
2023-05-08T23:14:05.755Z,12.13
2023-05-08T23:19:04.682Z,12.00
2023-05-08T23:24:06.081Z,11.79
2023-05-08T23:29:04.793Z,11.96
2023-05-08T23:34:03.612Z,12.05
2023-05-08T23:39:02.297Z,12.09
2023-05-08T23:44:02.472Z,12.22
2023-05-08T23:49:01.173Z,12.19
2023-05-08T23:53:59.947Z,12.10
2023-05-08T23:58:58.765Z,11.94
